CheckWX is a tool to help pilots better visualize weather data.  It is not intended as a substitute for an official pre-flight weather briefing.

10:08:42 UTC

ZLXY TAF
Xi'an Xianyang International Airport
Xianyang, China
TAF ZLXY 260304Z 2606/2706 06004MPS 3000 HZ NSC TX32/2608Z TN22/2622Z BECMG 2616/2617 2700 -RA BR TEMPO 2704/2706 RA

Jun-26@
06:00 UTC

Jun-26 @ 06:00 UTC

Jun-26@
16:00 UTC

Jun-26 @ 16:00 UTC

TAF ZLXY 260304Z 2606/2706 06004MPS 3000 HZ NSC TX32/2608Z TN22/2622Z
Wind
  • 060° at 8 KTS
Conditions
Haze
Cloud Levels
  • No significant clouds

Jun-26@
16:00 UTC

Jun-26 @ 16:00 UTC

Jun-27@
06:00 UTC

Jun-27 @ 06:00 UTC

BECMG 2616/2617 2700 -RA BR

Becoming

Becoming Conditions expected by Wed, Jun 26, 2019 @ 17:00 UTC

Wind
  • 060° at 8 KTS
Conditions
Light Rain, Mist
Cloud Levels
  • No significant clouds

Jun-27@
04:00 UTC

Jun-27 @ 04:00 UTC

Jun-27@
06:00 UTC

Jun-27 @ 06:00 UTC

TEMPO 2704/2706 RA

Temporary

Temporary Changes expected for less than half the time period

Conditions
Rain